Terminal Aerodrome Forecast
Issued by NWS

Home | Current Version | Previous Version | Text Only | Print | Product List | Glossary On
Versions: 1 2 3 4 5 6 7 8 9 10 11 12 13 14 15 16 17 18 19 20 21 22 23 24 25 26 27 28 29 30 31 32 33 34 35 36
000
FTUS43 KLOT 230500
TAFORD
TAF
KORD 230531Z 2306/2412 20004KT P6SM SKC
     FM231500 23007KT P6SM SKC
     FM232100 11009KT P6SM SKC
     FM240100 15005KT P6SM FEW250=

USA.gov is the U.S. government's official web portal to all federal, state and local government web resources and services.